createdAt,value
2018-12-23T00:01:22.485Z,16.07
2018-12-23T00:03:51.397Z,15.17
2018-12-23T00:06:20.316Z,24.85
2018-12-23T00:08:49.199Z,15.87
2018-12-23T00:11:18.099Z,15.30
2018-12-23T00:13:47.029Z,13.80
2018-12-23T00:16:15.907Z,21.77
2018-12-23T00:18:44.825Z,13.13
2018-12-23T00:21:13.721Z,16.47
2018-12-23T00:23:42.613Z,19.20
2018-12-23T00:26:11.515Z,16.60
2018-12-23T00:28:40.419Z,16.53
2018-12-23T00:31:09.308Z,24.10
2018-12-23T00:33:38.248Z,19.53
2018-12-23T00:36:07.137Z,18.20
2018-12-23T00:38:36.010Z,19.03
2018-12-23T00:41:04.906Z,19.83
2018-12-23T00:43:33.875Z,16.70
2018-12-23T00:46:02.692Z,12.37
2018-12-23T00:48:31.614Z,13.67
2018-12-23T00:51:00.522Z,13.50
2018-12-23T00:53:29.451Z,15.03
2018-12-23T00:55:58.336Z,12.07
2018-12-23T00:58:27.214Z,20.87
2018-12-23T01:00:56.141Z,14.87
2018-12-23T01:03:25.023Z,14.43
2018-12-23T01:05:53.941Z,23.50
2018-12-23T01:08:22.825Z,22.17
2018-12-23T01:10:51.692Z,18.13
2018-12-23T01:13:20.598Z,11.47
2018-12-23T01:15:49.480Z,15.47
2018-12-23T01:18:18.439Z,18.13
2018-12-23T01:20:47.293Z,18.33
2018-12-23T01:23:16.166Z,19.87
2018-12-23T01:25:45.091Z,19.63
2018-12-23T01:28:14.100Z,17.47
2018-12-23T01:30:42.891Z,21.55
2018-12-23T01:33:11.803Z,16.93
2018-12-23T01:35:40.672Z,22.03
2018-12-23T01:38:09.586Z,14.18
2018-12-23T01:40:38.503Z,18.40
2018-12-23T01:43:07.470Z,14.20
2018-12-23T01:45:36.419Z,16.00
2018-12-23T01:48:05.470Z,21.17
2018-12-23T01:50:34.240Z,17.20
2018-12-23T01:53:03.161Z,14.20
2018-12-23T01:55:32.067Z,18.67
2018-12-23T01:58:00.994Z,17.17
2018-12-23T02:00:29.873Z,11.50
2018-12-23T02:02:58.766Z,21.23
2018-12-23T02:05:27.676Z,11.10
2018-12-23T02:07:56.572Z,22.83
2018-12-23T02:10:25.490Z,17.17
2018-12-23T02:12:54.438Z,19.27
2018-12-23T02:15:23.285Z,18.13
2018-12-23T02:17:52.153Z,21.73
2018-12-23T02:20:21.065Z,21.00
2018-12-23T02:22:49.956Z,13.73
2018-12-23T02:25:18.890Z,16.20
2018-12-23T02:27:47.786Z,19.30
2018-12-23T02:30:16.687Z,17.17
2018-12-23T02:32:45.585Z,18.30
2018-12-23T02:35:14.487Z,21.73
2018-12-23T02:37:43.405Z,16.63
2018-12-23T02:40:12.271Z,21.83
2018-12-23T02:42:41.255Z,18.87
2018-12-23T02:45:10.074Z,21.17
2018-12-23T02:47:39.022Z,22.07
2018-12-23T02:50:07.966Z,22.70
2018-12-23T02:52:36.874Z,23.23
2018-12-23T02:55:05.805Z,24.60
2018-12-23T02:57:34.720Z,22.83
2018-12-23T03:00:03.627Z,24.53
2018-12-23T03:02:32.511Z,27.03
2018-12-23T03:05:01.429Z,26.67
2018-12-23T03:07:30.365Z,30.50
2018-12-23T03:09:59.234Z,24.97
2018-12-23T03:12:28.150Z,19.03
2018-12-23T03:14:57.048Z,33.30
2018-12-23T03:17:25.962Z,30.73
2018-12-23T03:19:54.892Z,23.60
2018-12-23T03:22:23.800Z,28.17
2018-12-23T03:24:52.689Z,33.30
2018-12-23T03:27:21.603Z,27.10
2018-12-23T03:29:50.521Z,27.03
2018-12-23T03:32:19.382Z,31.20
2018-12-23T03:34:48.305Z,29.10
2018-12-23T03:37:17.164Z,34.07
2018-12-23T03:39:46.075Z,44.40
2018-12-23T03:42:14.940Z,27.63
2018-12-23T03:44:43.878Z,32.63
2018-12-23T03:47:12.810Z,36.50
2018-12-23T03:49:41.685Z,39.57
2018-12-23T03:52:10.591Z,45.78
2018-12-23T03:54:39.482Z,43.07
2018-12-23T03:57:08.400Z,47.97
2018-12-23T03:59:37.288Z,46.93
2018-12-23T04:02:06.183Z,45.40
2018-12-23T04:04:35.065Z,46.90
2018-12-23T04:07:03.997Z,40.60
2018-12-23T04:09:32.902Z,47.50
2018-12-23T04:12:01.787Z,44.03
2018-12-23T04:14:30.669Z,53.00
2018-12-23T04:16:59.579Z,46.33
2018-12-23T04:19:28.440Z,54.15
2018-12-23T04:21:57.347Z,48.03
2018-12-23T04:24:26.213Z,43.77
2018-12-23T04:26:55.102Z,56.77
2018-12-23T04:29:24.019Z,54.07
2018-12-23T04:31:52.957Z,44.37
2018-12-23T04:34:21.808Z,51.43
2018-12-23T04:36:50.734Z,55.70
2018-12-23T04:39:19.850Z,46.80
2018-12-23T04:41:48.739Z,51.53
2018-12-23T04:44:17.655Z,59.17
2018-12-23T04:46:46.545Z,54.37
2018-12-23T04:49:15.458Z,49.20
2018-12-23T04:51:44.345Z,56.97
2018-12-23T04:54:13.278Z,49.13
2018-12-23T04:56:42.200Z,56.10
2018-12-23T04:59:11.066Z,51.77
2018-12-23T05:01:40.007Z,54.00
2018-12-23T05:04:08.953Z,55.60
2018-12-23T05:06:43.274Z,57.20
2018-12-23T05:09:07.052Z,58.13
2018-12-23T05:11:35.937Z,60.07
2018-12-23T05:14:04.861Z,58.43
2018-12-23T05:16:33.759Z,58.23
2018-12-23T05:19:02.660Z,54.00
2018-12-23T05:21:31.557Z,63.10
2018-12-23T05:24:00.431Z,55.30
2018-12-23T05:26:29.330Z,57.77
2018-12-23T05:28:58.221Z,57.10
2018-12-23T05:31:27.129Z,57.47
2018-12-23T05:33:56.003Z,58.40
2018-12-23T05:36:24.940Z,49.43
2018-12-23T05:38:53.843Z,59.00
2018-12-23T05:41:22.787Z,56.27
2018-12-23T05:43:51.673Z,62.73
2018-12-23T05:46:20.552Z,48.50
2018-12-23T05:48:49.432Z,54.53
2018-12-23T05:51:18.342Z,58.10
2018-12-23T05:53:47.229Z,54.33
2018-12-23T05:56:16.148Z,52.87
2018-12-23T05:58:45.028Z,60.17
2018-12-23T06:01:13.952Z,56.07
2018-12-23T06:03:42.860Z,47.47
2018-12-23T06:06:11.738Z,55.10
2018-12-23T06:08:40.644Z,53.13
2018-12-23T06:11:09.526Z,52.73
2018-12-23T06:13:38.425Z,48.73
2018-12-23T06:16:07.333Z,57.20
2018-12-23T06:18:36.309Z,52.37
2018-12-23T06:21:05.131Z,48.77
2018-12-23T06:23:34.047Z,51.47
2018-12-23T06:26:02.974Z,62.77
2018-12-23T06:28:31.864Z,57.10
2018-12-23T06:31:00.769Z,61.33
2018-12-23T06:33:29.677Z,59.23
2018-12-23T06:35:58.580Z,55.70
2018-12-23T06:38:27.479Z,57.50
2018-12-23T06:40:56.352Z,56.17
2018-12-23T06:43:25.252Z,64.67
2018-12-23T06:45:54.148Z,68.13
2018-12-23T06:48:23.015Z,63.27
2018-12-23T06:50:51.929Z,59.93
2018-12-23T06:53:20.874Z,61.27
2018-12-23T06:55:49.740Z,49.37
2018-12-23T06:58:18.634Z,66.47
2018-12-23T07:00:47.517Z,57.77
2018-12-23T07:03:16.398Z,67.62
2018-12-23T07:05:45.293Z,59.10
2018-12-23T07:08:14.199Z,49.73
2018-12-23T07:10:43.096Z,57.20
2018-12-23T07:13:11.998Z,59.73
2018-12-23T07:15:40.892Z,55.03
2018-12-23T07:18:09.811Z,52.30
2018-12-23T07:20:38.690Z,59.97
2018-12-23T07:23:07.608Z,59.77
2018-12-23T07:25:36.499Z,56.63
2018-12-23T07:28:05.428Z,59.43
2018-12-23T07:30:34.352Z,57.70
2018-12-23T07:33:03.289Z,61.83
2018-12-23T07:35:32.189Z,56.00
2018-12-23T07:38:01.127Z,56.10
2018-12-23T07:40:30.033Z,57.73
2018-12-23T07:42:58.926Z,58.80
2018-12-23T07:45:27.847Z,55.10
2018-12-23T07:47:56.785Z,55.93
2018-12-23T07:50:25.687Z,70.45
2018-12-23T07:52:54.622Z,61.40
2018-12-23T07:55:23.520Z,56.50
2018-12-23T07:57:52.428Z,56.93
2018-12-23T08:00:21.332Z,60.57
2018-12-23T08:02:50.245Z,66.20
2018-12-23T08:05:19.193Z,59.83
2018-12-23T08:07:48.053Z,62.90
2018-12-23T08:10:16.946Z,73.52
2018-12-23T08:12:45.826Z,73.97
2018-12-23T08:15:14.729Z,69.57
2018-12-23T08:17:43.620Z,67.87
2018-12-23T08:20:12.524Z,67.97
2018-12-23T08:22:41.417Z,74.57
2018-12-23T08:25:12.606Z,73.83
2018-12-23T08:27:41.513Z,68.27
2018-12-23T08:30:10.513Z,75.53
2018-12-23T08:32:39.420Z,76.23
2018-12-23T08:35:08.374Z,66.77
2018-12-23T08:37:44.420Z,64.67
2018-12-23T08:40:06.187Z,67.23
2018-12-23T08:42:35.062Z,64.93
2018-12-23T08:45:04.109Z,71.97
2018-12-23T08:47:33.025Z,70.60
2018-12-23T08:50:01.926Z,74.03
2018-12-23T08:52:30.884Z,76.90
2018-12-23T08:54:59.751Z,75.87
2018-12-23T08:57:28.706Z,74.60
2018-12-23T08:59:57.558Z,82.23
2018-12-23T09:02:26.502Z,81.47
2018-12-23T09:04:55.395Z,79.37
2018-12-23T09:07:24.280Z,82.60
2018-12-23T09:09:53.187Z,74.63
2018-12-23T09:12:22.063Z,74.07
2018-12-23T09:14:51.013Z,87.73
2018-12-23T09:17:19.902Z,87.50
2018-12-23T09:19:48.865Z,77.50
2018-12-23T09:22:19.705Z,100.97
2018-12-23T09:24:46.671Z,101.12
2018-12-23T09:27:15.582Z,81.60
2018-12-23T09:29:44.534Z,80.10
2018-12-23T09:32:13.498Z,91.57
2018-12-23T09:34:42.330Z,86.63
2018-12-23T09:37:11.230Z,87.17
2018-12-23T09:39:40.108Z,86.97
2018-12-23T09:42:09.091Z,80.90
2018-12-23T09:44:54.924Z,99.73
2018-12-23T09:47:26.053Z,86.13
2018-12-23T09:49:58.348Z,140.33
2018-12-23T09:52:30.974Z,110.40
2018-12-23T09:55:08.008Z,102.83
2018-12-23T09:57:40.162Z,105.90
2018-12-23T10:00:25.549Z,96.03
2018-12-23T10:02:57.094Z,88.73
2018-12-23T10:05:26.461Z,82.23
2018-12-23T10:08:11.811Z,98.03
2018-12-23T10:10:41.530Z,82.97
2018-12-23T10:13:10.849Z,92.30
2018-12-23T10:15:42.881Z,87.20
2018-12-23T10:18:22.267Z,92.50
2018-12-23T10:20:51.621Z,88.23
2018-12-23T10:23:22.577Z,87.43
2018-12-23T10:25:57.171Z,88.53
2018-12-23T10:28:27.247Z,87.07
2018-12-23T10:30:56.563Z,82.47
2018-12-23T10:33:29.292Z,77.93
2018-12-23T10:35:58.517Z,96.37
2018-12-23T10:38:30.771Z,82.53
2018-12-23T10:41:04.365Z,72.57
2018-12-23T10:43:33.727Z,80.17
2018-12-23T10:46:06.444Z,82.03
2018-12-23T10:48:36.208Z,90.60
2018-12-23T10:51:13.597Z,79.50
2018-12-23T10:53:48.739Z,73.93
2018-12-23T10:56:17.920Z,76.57
2018-12-23T10:58:47.285Z,77.33
2018-12-23T11:01:19.670Z,73.00
2018-12-23T11:03:51.659Z,72.40
2018-12-23T11:06:23.828Z,70.70
2018-12-23T11:08:53.681Z,79.03
2018-12-23T11:11:29.524Z,69.53
2018-12-23T11:13:59.089Z,61.77
2018-12-23T11:16:28.548Z,81.67
2018-12-23T11:19:00.733Z,72.37
2018-12-23T11:21:30.270Z,63.63
2018-12-23T11:24:11.210Z,63.87
2018-12-23T11:26:45.083Z,67.90
2018-12-23T11:29:12.958Z,59.67
2018-12-23T11:31:42.330Z,56.43
2018-12-23T11:34:16.047Z,68.83
2018-12-23T11:36:47.555Z,67.97
2018-12-23T11:39:17.183Z,62.70
2018-12-23T11:41:46.494Z,59.27
2018-12-23T11:44:15.811Z,60.93
2018-12-23T11:46:46.918Z,58.40
2018-12-23T11:49:14.456Z,65.12
2018-12-23T11:51:43.954Z,56.03
2018-12-23T11:55:02.144Z,60.03
2018-12-23T11:57:32.481Z,64.03
2018-12-23T12:00:04.587Z,70.73
2018-12-23T12:02:36.010Z,63.37
2018-12-23T12:05:05.344Z,70.40
2018-12-23T12:07:37.666Z,63.10
2018-12-23T12:10:09.660Z,67.00
2018-12-23T12:12:39.741Z,61.23
2018-12-23T12:15:09.281Z,59.67
2018-12-23T12:17:39.092Z,66.77
2018-12-23T12:20:15.049Z,55.00
2018-12-23T12:22:44.851Z,62.73
2018-12-23T12:25:18.700Z,64.72
2018-12-23T12:27:48.093Z,50.03
2018-12-23T12:30:17.467Z,41.23
2018-12-23T12:32:47.323Z,45.57
2018-12-23T12:35:16.720Z,52.60
2018-12-23T12:37:48.465Z,41.63
2018-12-23T12:40:17.849Z,36.30
2018-12-23T12:42:47.100Z,41.17
2018-12-23T12:45:19.088Z,35.97
2018-12-23T12:47:48.758Z,44.07
2018-12-23T12:50:24.780Z,44.70
2018-12-23T12:52:52.540Z,37.53
2018-12-23T12:55:21.233Z,41.57
2018-12-23T12:57:53.656Z,40.83
2018-12-23T13:00:22.708Z,28.70
2018-12-23T13:02:57.360Z,29.40
2018-12-23T13:05:26.575Z,27.90
2018-12-23T13:07:56.492Z,22.30
2018-12-23T13:10:26.037Z,24.10
2018-12-23T13:12:58.390Z,23.35
2018-12-23T13:15:28.064Z,27.53
2018-12-23T13:17:57.711Z,24.03
2018-12-23T13:20:30.117Z,22.93
2018-12-23T13:23:04.209Z,24.07
2018-12-23T13:25:36.210Z,26.87
2018-12-23T13:28:07.674Z,17.77
2018-12-23T13:30:37.326Z,20.93
2018-12-23T13:33:16.850Z,15.77
2018-12-23T13:35:46.428Z,18.30
2018-12-23T13:38:15.832Z,16.77
2018-12-23T13:41:35.211Z,15.20
2018-12-23T13:44:57.289Z,15.50
2018-12-23T13:47:57.643Z,22.00
2018-12-23T13:50:59.234Z,16.30
2018-12-23T13:53:59.482Z,16.67
2018-12-23T13:56:55.190Z,18.90
2018-12-23T14:00:02.321Z,17.77
2018-12-23T14:03:26.755Z,15.47
2018-12-23T14:06:26.046Z,19.20
2018-12-23T14:09:21.265Z,20.87
2018-12-23T14:11:59.525Z,18.07
2018-12-23T14:14:28.961Z,19.27
2018-12-23T14:16:58.384Z,25.73
2018-12-23T14:19:29.571Z,20.97
2018-12-23T14:22:03.266Z,21.90
2018-12-23T14:24:35.904Z,28.10
2018-12-23T14:27:08.875Z,18.90
2018-12-23T14:29:39.777Z,20.07
2018-12-23T14:32:09.361Z,18.33
2018-12-23T14:34:45.983Z,22.37
2018-12-23T14:37:15.801Z,21.80
2018-12-23T14:39:47.461Z,18.13
2018-12-23T14:42:21.951Z,20.57
2018-12-23T14:44:58.897Z,22.93
2018-12-23T14:47:28.167Z,25.57
2018-12-23T14:50:00.794Z,20.93
2018-12-23T14:52:30.294Z,26.33
2018-12-23T14:55:02.594Z,23.47
2018-12-23T14:57:33.533Z,27.77
2018-12-23T15:00:04.391Z,25.37
2018-12-23T15:02:35.737Z,20.60
2018-12-23T15:05:05.887Z,23.37
2018-12-23T15:07:38.033Z,16.67
2018-12-23T15:10:08.878Z,17.03
2018-12-23T15:12:41.822Z,22.80
2018-12-23T15:15:14.581Z,21.57
2018-12-23T15:17:44.153Z,21.60
2018-12-23T15:20:13.979Z,18.97
2018-12-23T15:22:46.344Z,18.13
2018-12-23T15:25:17.880Z,21.47
2018-12-23T15:27:48.314Z,18.30
2018-12-23T15:30:19.762Z,29.10
2018-12-23T15:32:49.245Z,29.20
2018-12-23T15:35:24.326Z,19.73
2018-12-23T15:37:58.060Z,28.35
2018-12-23T15:40:26.932Z,20.30
2018-12-23T15:42:55.862Z,16.80
2018-12-23T15:45:24.778Z,22.40
2018-12-23T15:47:53.660Z,26.07
2018-12-23T15:50:22.552Z,20.97
2018-12-23T15:52:51.437Z,19.70
2018-12-23T15:55:20.326Z,18.10
2018-12-23T15:57:49.201Z,19.27
2018-12-23T16:00:18.117Z,21.20
2018-12-23T16:02:47.033Z,18.35
2018-12-23T16:05:15.938Z,17.00
2018-12-23T16:07:44.868Z,15.23
2018-12-23T16:10:13.758Z,15.80
2018-12-23T16:12:42.654Z,14.13
2018-12-23T16:15:11.568Z,10.23
2018-12-23T16:17:40.510Z,14.77
2018-12-23T16:20:11.477Z,9.83
2018-12-23T16:22:40.401Z,11.87
2018-12-23T16:25:09.335Z,13.57
2018-12-23T16:27:38.247Z,9.30
2018-12-23T16:30:09.089Z,9.30
2018-12-23T16:32:37.959Z,7.43
2018-12-23T16:35:06.892Z,9.43
2018-12-23T16:37:35.828Z,10.33
2018-12-23T16:40:06.894Z,9.53
2018-12-23T16:42:35.792Z,9.00
2018-12-23T16:45:04.982Z,7.97
2018-12-23T16:47:33.914Z,7.63
2018-12-23T16:50:02.813Z,10.27
2018-12-23T16:52:31.695Z,9.03
2018-12-23T16:55:00.631Z,6.53
2018-12-23T16:57:29.469Z,10.47
2018-12-23T16:59:58.382Z,9.03
2018-12-23T17:02:27.284Z,7.20
2018-12-23T17:04:56.143Z,5.43
2018-12-23T17:07:25.037Z,6.60
2018-12-23T17:09:53.903Z,7.33
2018-12-23T17:12:22.797Z,8.73
2018-12-23T17:14:51.669Z,6.00
2018-12-23T17:17:20.573Z,5.33
2018-12-23T17:19:49.442Z,5.43
2018-12-23T17:22:18.370Z,7.67
2018-12-23T17:24:47.247Z,9.27
2018-12-23T17:27:16.869Z,4.70
2018-12-23T17:29:45.645Z,9.18
2018-12-23T17:32:14.568Z,4.83
2018-12-23T17:34:43.455Z,6.42
2018-12-23T17:37:12.356Z,7.73
2018-12-23T17:39:41.259Z,6.00
2018-12-23T17:42:10.202Z,6.60
2018-12-23T17:44:39.083Z,5.47
2018-12-23T17:47:07.983Z,6.90
2018-12-23T17:49:36.941Z,6.70
2018-12-23T17:52:05.854Z,5.10
2018-12-23T17:54:34.725Z,7.87
2018-12-23T17:57:03.609Z,5.50
2018-12-23T17:59:32.491Z,6.47
2018-12-23T18:02:01.423Z,7.13
2018-12-23T18:04:30.303Z,5.33
2018-12-23T18:07:03.778Z,5.83
2018-12-23T18:09:28.079Z,6.30
2018-12-23T18:11:56.976Z,6.47
2018-12-23T18:14:25.911Z,6.37
2018-12-23T18:16:54.718Z,5.73
2018-12-23T18:19:23.610Z,7.67
2018-12-23T18:21:52.501Z,6.00
2018-12-23T18:24:21.363Z,7.00
2018-12-23T18:26:50.277Z,6.10
2018-12-23T18:29:19.166Z,8.17
2018-12-23T18:31:48.066Z,8.57
2018-12-23T18:34:16.962Z,10.00
2018-12-23T18:36:45.829Z,9.23
2018-12-23T18:39:14.737Z,10.10
2018-12-23T18:41:43.611Z,9.67
2018-12-23T18:44:12.522Z,7.70
2018-12-23T18:46:41.393Z,8.83
2018-12-23T18:49:10.295Z,10.50
2018-12-23T18:51:39.171Z,8.90
2018-12-23T18:54:08.086Z,8.63
2018-12-23T18:56:40.414Z,9.17
2018-12-23T18:59:09.358Z,8.17
2018-12-23T19:01:40.677Z,11.57
2018-12-23T19:04:10.195Z,9.57
2018-12-23T19:06:39.081Z,10.07
2018-12-23T19:09:19.305Z,10.17
2018-12-23T19:12:35.912Z,9.80
2018-12-23T19:15:29.401Z,9.07
2018-12-23T19:18:36.185Z,9.80
2018-12-23T19:21:45.580Z,10.07
2018-12-23T19:24:27.463Z,9.57
2018-12-23T19:27:49.104Z,9.33
2018-12-23T19:30:44.643Z,8.57
2018-12-23T19:33:44.258Z,8.47
2018-12-23T19:37:00.726Z,10.63
2018-12-23T19:40:25.496Z,8.50
2018-12-23T19:43:21.883Z,8.60
2018-12-23T19:46:38.521Z,8.03
2018-12-23T19:49:34.010Z,8.77
2018-12-23T19:52:21.362Z,9.53
2018-12-23T19:55:22.734Z,8.00
2018-12-23T19:58:33.206Z,9.60
2018-12-23T20:01:49.900Z,9.73
2018-12-23T20:04:48.398Z,7.87
2018-12-23T20:07:33.044Z,10.67
2018-12-23T20:10:46.654Z,10.13
2018-12-23T20:13:40.121Z,8.93
2018-12-23T20:16:58.602Z,11.15
2018-12-23T20:20:00.895Z,10.23
2018-12-23T20:22:47.731Z,9.00
2018-12-23T20:25:59.991Z,11.57
2018-12-23T20:29:12.454Z,7.67
2018-12-23T20:32:28.438Z,10.40
2018-12-23T20:35:51.050Z,10.57
2018-12-23T20:38:45.160Z,9.53
2018-12-23T20:41:42.882Z,10.77
2018-12-23T20:44:41.713Z,8.67
2018-12-23T20:48:03.108Z,8.03
2018-12-23T20:51:10.913Z,9.23
2018-12-23T20:54:21.070Z,8.40
2018-12-23T20:57:43.584Z,9.13
2018-12-23T21:00:56.348Z,10.40
2018-12-23T21:03:50.850Z,11.10
2018-12-23T21:06:48.822Z,9.00
2018-12-23T21:09:45.764Z,9.77
2018-12-23T21:12:55.712Z,9.43
2018-12-23T21:16:25.439Z,7.80
2018-12-23T21:19:24.539Z,6.53
2018-12-23T21:22:20.794Z,6.43
2018-12-23T21:25:42.381Z,6.87
2018-12-23T21:28:23.986Z,9.23
2018-12-23T21:31:55.970Z,8.20
2018-12-23T21:35:12.848Z,6.37
2018-12-23T21:38:16.674Z,6.57
2018-12-23T21:41:33.682Z,8.70
2018-12-23T21:44:19.883Z,7.70
2018-12-23T21:47:25.243Z,9.30
2018-12-23T21:50:11.542Z,8.30
2018-12-23T21:53:28.229Z,8.23
2018-12-23T21:56:22.810Z,8.50
2018-12-23T21:59:24.391Z,7.90
2018-12-23T22:02:43.160Z,10.90
2018-12-23T22:05:58.744Z,9.80
2018-12-23T22:09:02.050Z,9.57
2018-12-23T22:11:52.152Z,10.87
2018-12-23T22:14:21.018Z,9.37
2018-12-23T22:16:49.943Z,11.47
2018-12-23T22:19:18.810Z,9.67
2018-12-23T22:21:47.790Z,11.47
2018-12-23T22:24:16.592Z,13.07
2018-12-23T22:26:45.496Z,10.10
2018-12-23T22:29:14.402Z,11.93
2018-12-23T22:31:43.325Z,10.40
2018-12-23T22:34:12.232Z,10.73
2018-12-23T22:36:41.138Z,10.57
2018-12-23T22:39:10.022Z,10.48
2018-12-23T22:41:41.454Z,8.73
2018-12-23T22:44:07.849Z,9.10
2018-12-23T22:46:36.710Z,8.63
2018-12-23T22:49:05.627Z,8.70
2018-12-23T22:51:34.562Z,9.40
2018-12-23T22:54:03.388Z,6.60
2018-12-23T22:56:32.263Z,5.93
2018-12-23T22:59:01.195Z,5.93
2018-12-23T23:01:30.077Z,8.83
2018-12-23T23:03:59.000Z,7.13
2018-12-23T23:06:27.935Z,7.17
2018-12-23T23:08:56.806Z,6.90
2018-12-23T23:11:27.480Z,7.33
2018-12-23T23:13:54.563Z,7.33
2018-12-23T23:16:23.437Z,6.90
2018-12-23T23:18:52.317Z,6.97
2018-12-23T23:21:21.202Z,5.57
2018-12-23T23:23:50.063Z,6.60
2018-12-23T23:26:18.942Z,5.60
2018-12-23T23:28:47.834Z,8.20
2018-12-23T23:31:16.714Z,7.33
2018-12-23T23:33:46.540Z,6.20
2018-12-23T23:36:14.501Z,5.57
2018-12-23T23:38:43.404Z,5.90
2018-12-23T23:41:12.299Z,5.50
2018-12-23T23:43:41.187Z,6.25
2018-12-23T23:46:10.079Z,6.33
2018-12-23T23:48:38.994Z,6.93
2018-12-23T23:51:07.938Z,6.05
2018-12-23T23:53:36.857Z,5.80
2018-12-23T23:56:05.772Z,5.13
2018-12-23T23:58:34.675Z,4.90
